Time;durP1;ratioP1;P1;durP2;ratioP2;P2;SDS_P1;SDS_P2;PMS_P1;PMS_P2;Temp;Humidity;BMP_temperature;BMP_pressure;BME280_temperature;BME280_humidity;BME280_pressure;Samples;Min_cycle;Max_cycle;Signal;HPM_P1;HPM_P2
2023/10/13 00:01:20;;;;;;;9.13;4.10;;;;;;;22.78;37.32;97511.72;5034731;28;20430;-70
2023/10/13 00:03:45;;;;;;;4.93;3.83;;;;;;;22.79;37.10;97513.34;5029094;28;20470;-69
2023/10/13 00:06:11;;;;;;;9.87;4.30;;;;;;;22.78;37.27;97503.69;5036191;28;20249;-69
2023/10/13 00:08:36;;;;;;;7.60;3.97;;;;;;;22.76;38.50;97505.78;5033860;28;20198;-70
2023/10/13 00:11:02;;;;;;;9.23;4.47;;;;;;;22.67;39.64;97501.78;5031853;28;20204;-71
2023/10/13 00:13:31;;;;;;;6.23;4.07;;;;;;;22.62;40.28;97504.28;5031198;28;20188;-70
2023/10/13 00:15:57;;;;;;;12.73;4.47;;;;;;;22.57;41.14;97504.13;5025732;28;20536;-71
2023/10/13 00:18:42;;;;;;;16.00;4.97;;;;;;;22.50;41.63;97506.88;5023874;28;20963;-71
2023/10/13 00:21:31;;;;;;;9.23;4.33;;;;;;;22.40;41.69;97499.38;5024792;28;20242;-73
2023/10/13 00:23:57;;;;;;;7.10;4.50;;;;;;;22.31;40.89;97500.66;5039768;28;20472;-70
2023/10/13 00:26:27;;;;;;;10.00;4.63;;;;;;;22.25;40.94;97505.88;5027528;28;21132;-70
2023/10/13 00:29:08;;;;;;;9.27;4.20;;;;;;;22.19;41.13;97497.94;5029434;28;20426;-69
2023/10/13 00:31:42;;;;;;;12.70;4.90;;;;;;;22.13;41.18;97493.44;5033381;28;20840;-70
2023/10/13 00:34:12;;;;;;;9.37;4.13;;;;;;;22.12;41.25;97503.31;5035782;28;20445;-70
2023/10/13 00:36:48;;;;;;;7.23;4.50;;;;;;;22.06;41.45;97496.19;5030990;28;21006;-71
2023/10/13 00:39:15;;;;;;;16.50;5.03;;;;;;;22.01;41.50;97501.38;5031213;28;20524;-68
2023/10/13 00:41:52;;;;;;;8.80;4.70;;;;;;;21.87;41.71;97496.16;5039394;28;20446;-70
2023/10/13 00:44:25;;;;;;;11.97;5.17;;;;;;;21.84;41.80;97495.78;5031715;28;20472;-71
2023/10/13 00:46:55;;;;;;;15.33;5.97;;;;;;;21.79;41.71;97488.44;5030956;28;20438;-70
2023/10/13 00:49:21;;;;;;;8.73;4.50;;;;;;;21.72;42.64;97485.81;5029163;28;20500;-68
2023/10/13 00:51:47;;;;;;;9.47;4.67;;;;;;;21.63;42.98;97500.44;5026469;28;20452;-69
2023/10/13 00:54:13;;;;;;;6.67;4.80;;;;;;;21.62;43.12;97499.63;5032753;28;20454;-70
2023/10/13 00:56:53;;;;;;;11.77;4.87;;;;;;;21.55;42.94;97504.13;5036848;28;20253;-70
2023/10/13 00:59:23;;;;;;;8.70;4.90;;;;;;;21.53;43.12;97500.91;5033435;28;20433;-71
2023/10/13 01:01:54;;;;;;;10.27;5.33;;;;;;;21.53;42.91;97495.56;5042028;28;20448;-70
2023/10/13 01:04:19;;;;;;;8.10;5.03;;;;;;;21.46;43.25;97502.78;5038947;28;20521;-71
2023/10/13 01:06:46;;;;;;;9.83;5.27;;;;;;;21.42;43.13;97505.06;5030677;28;20435;-69
2023/10/13 01:09:16;;;;;;;15.33;5.17;;;;;;;21.38;43.20;97503.84;5030611;28;20226;-70
2023/10/13 01:11:52;;;;;;;12.30;5.13;;;;;;;21.23;43.79;97501.47;5030533;28;20434;-70
2023/10/13 01:14:18;;;;;;;8.40;4.67;;;;;;;21.22;43.73;97494.50;5041089;28;20453;-71
2023/10/13 01:16:49;;;;;;;11.80;4.60;;;;;;;21.20;44.03;97499.22;5041684;28;20495;-70
2023/10/13 01:19:21;;;;;;;10.67;4.67;;;;;;;21.20;43.59;97490.44;5039815;28;20491;-69
2023/10/13 01:21:50;;;;;;;7.50;3.73;;;;;;;21.22;43.13;97489.19;5041654;28;20783;-70
2023/10/13 01:24:19;;;;;;;8.17;4.67;;;;;;;21.20;42.65;97501.91;5037804;28;20558;-70
2023/10/13 01:26:44;;;;;;;6.30;4.03;;;;;;;21.22;42.94;97494.50;5025681;28;20453;-70
2023/10/13 01:29:13;;;;;;;8.80;3.80;;;;;;;21.22;42.88;97483.84;5041245;28;20426;-69
2023/10/13 01:31:45;;;;;;;7.23;4.30;;;;;;;21.24;42.32;97475.63;5032799;28;20635;-70
2023/10/13 01:34:21;;;;;;;6.13;4.00;;;;;;;21.32;41.24;97478.88;5038266;28;20802;-70
2023/10/13 01:36:56;;;;;;;8.57;4.10;;;;;;;21.39;40.62;97475.34;5030036;28;20430;-69
2023/10/13 01:39:28;;;;;;;9.60;3.70;;;;;;;21.43;42.05;97474.69;5029416;28;20469;-70
2023/10/13 01:41:57;;;;;;;12.20;4.03;;;;;;;21.42;40.84;97475.72;5032936;28;20439;-71
2023/10/13 01:44:27;;;;;;;6.93;4.17;;;;;;;21.50;40.10;97469.31;5034494;28;20528;-70
2023/10/13 01:46:53;;;;;;;6.83;4.00;;;;;;;21.51;40.71;97468.28;5029269;28;20850;-71
2023/10/13 01:49:19;;;;;;;8.67;4.50;;;;;;;21.56;40.96;97473.78;5029993;28;20435;-71
2023/10/13 01:51:47;;;;;;;9.30;4.10;;;;;;;21.54;40.77;97469.69;5029430;28;20187;-71
2023/10/13 01:54:13;;;;;;;6.10;4.10;;;;;;;21.57;40.34;97478.09;5036411;28;20258;-70
2023/10/13 01:56:44;;;;;;;7.83;4.20;;;;;;;21.60;39.97;97464.34;5028874;28;20947;-70
2023/10/13 01:59:11;;;;;;;5.63;3.80;;;;;;;21.61;41.47;97471.31;5043510;28;20679;-71
2023/10/13 02:01:37;;;;;;;7.20;4.10;;;;;;;21.56;41.34;97467.66;5044062;28;20439;-69
2023/10/13 02:04:03;;;;;;;7.73;3.50;;;;;;;21.54;41.62;97461.72;5028491;28;20478;-71
2023/10/13 02:06:36;;;;;;;15.53;4.53;;;;;;;21.48;nan;97455.38;5031166;28;20423;-71
2023/10/13 02:09:12;;;;;;;8.77;4.37;;;;;;;21.35;42.89;97461.66;5031044;28;20465;-70
2023/10/13 02:11:43;;;;;;;6.13;3.70;;;;;;;21.37;41.99;97464.09;5037994;28;20877;-71
2023/10/13 02:14:11;;;;;;;4.47;3.73;;;;;;;21.35;42.08;97455.47;5030191;28;21117;-69
2023/10/13 02:16:36;;;;;;;7.60;3.90;;;;;;;21.36;41.86;97457.91;5029128;28;20427;-71
2023/10/13 02:19:05;;;;;;;7.00;3.83;;;;;;;21.38;41.64;97444.41;5031391;28;20453;-71
2023/10/13 02:21:39;;;;;;;15.83;4.53;;;;;;;21.35;42.13;97443.00;5034652;28;20194;-70
2023/10/13 02:24:13;;;;;;;7.70;4.60;;;;;;;21.26;42.43;97442.44;5036367;28;20470;-70
2023/10/13 02:26:40;;;;;;;9.43;4.50;;;;;;;21.08;43.34;97440.50;5028153;28;20437;-70
2023/10/13 02:29:08;;;;;;;9.73;4.33;;;;;;;21.00;43.77;97440.72;5030899;28;20434;-69
2023/10/13 02:31:39;;;;;;;5.50;4.10;;;;;;;20.88;44.15;97429.94;5036204;28;20435;-70
2023/10/13 02:34:08;;;;;;;7.67;4.20;;;;;;;20.82;44.14;97420.13;5028869;28;20454;-70
2023/10/13 02:36:37;;;;;;;7.67;4.23;;;;;;;20.82;44.01;97423.63;5029735;28;20419;-69
2023/10/13 02:39:07;;;;;;;7.50;3.80;;;;;;;20.87;42.61;97417.66;5035010;28;20425;-70
2023/10/13 02:41:35;;;;;;;8.53;4.13;;;;;;;20.96;41.97;97427.03;5028453;28;20849;-71
2023/10/13 02:44:01;;;;;;;6.10;4.07;;;;;;;20.94;42.72;97421.09;5034688;28;20470;-70
2023/10/13 02:46:29;;;;;;;6.13;4.23;;;;;;;20.84;43.93;97413.59;5028547;28;20894;-69
2023/10/13 02:48:57;;;;;;;14.90;4.03;;;;;;;20.80;44.22;97422.19;5039563;28;20297;-70
2023/10/13 02:51:31;;;;;;;5.13;4.50;;;;;;;20.77;44.20;97419.97;5025931;28;20479;-69
2023/10/13 02:54:02;;;;;;;9.50;4.10;;;;;;;20.70;43.96;97414.63;5027011;28;20537;-69
2023/10/13 02:56:28;;;;;;;11.40;4.67;;;;;;;20.64;44.32;97416.31;5031193;28;20423;-69
2023/10/13 02:58:56;;;;;;;12.10;4.53;;;;;;;20.64;43.80;97408.31;5035568;28;20430;-70
2023/10/13 03:01:27;;;;;;;8.67;4.10;;;;;;;20.62;44.40;97405.03;5029942;28;20431;-70
2023/10/13 03:03:58;;;;;;;9.10;4.60;;;;;;;20.58;44.24;97403.03;5030521;28;20627;-70
2023/10/13 03:06:31;;;;;;;10.70;4.67;;;;;;;20.52;44.76;97412.66;5036926;28;20422;-70
2023/10/13 03:09:00;;;;;;;10.70;4.53;;;;;;;20.45;44.92;97409.19;5034966;28;20429;-70
2023/10/13 03:11:25;;;;;;;8.37;4.57;;;;;;;20.40;45.13;97401.84;5030132;28;21109;-71
2023/10/13 03:13:52;;;;;;;6.53;4.47;;;;;;;20.43;44.33;97406.75;5036051;28;20532;-71
2023/10/13 03:16:19;;;;;;;9.50;4.20;;;;;;;20.46;44.33;97398.38;5028112;28;20190;-70
2023/10/13 03:18:55;;;;;;;9.13;3.97;;;;;;;20.53;43.04;97399.13;5035197;28;20437;-70
2023/10/13 03:21:29;;;;;;;5.80;4.00;;;;;;;20.61;42.70;97394.59;5023220;28;21195;-71
2023/10/13 03:24:05;;;;;;;10.90;4.50;;;;;;;20.65;43.29;97396.66;5022177;28;20480;-71
2023/10/13 03:26:43;;;;;;;6.17;4.20;;;;;;;20.65;43.95;97399.31;5013236;28;20446;-70
2023/10/13 03:29:13;;;;;;;7.37;4.47;;;;;;;20.63;43.52;97389.88;5026796;28;20438;-70
2023/10/13 03:31:39;;;;;;;15.43;4.53;;;;;;;20.59;43.75;97396.66;5027658;28;20478;-71
2023/10/13 03:34:10;;;;;;;8.83;4.20;;;;;;;20.56;43.58;97392.56;5037111;28;20450;-71
2023/10/13 03:36:56;;;;;;;10.63;4.30;;;;;;;20.54;42.79;97392.78;5027466;28;20433;-70
2023/10/13 03:39:27;;;;;;;5.97;4.07;;;;;;;20.57;42.29;97396.88;5030537;28;20805;-70
2023/10/13 03:41:53;;;;;;;4.70;4.20;;;;;;;20.58;42.21;97393.19;5020421;28;20427;-69
2023/10/13 03:44:19;;;;;;;12.83;4.63;;;;;;;20.60;42.84;97393.78;5038609;28;20479;-69
2023/10/13 03:46:47;;;;;;;11.60;4.67;;;;;;;20.55;43.37;97393.59;5037416;28;20414;-70
2023/10/13 03:49:15;;;;;;;7.17;4.83;;;;;;;20.50;43.84;97385.44;5032332;28;20294;-70
2023/10/13 03:51:41;;;;;;;8.73;4.43;;;;;;;20.33;44.28;97391.22;5027888;28;20533;-70
2023/10/13 03:54:09;;;;;;;7.80;4.40;;;;;;;20.26;100.00;97379.81;5038981;28;20460;-71
2023/10/13 03:59:06;;;;;;;8.20;4.20;;;;;;;20.12;44.88;97388.84;5031436;28;20446;-72
2023/10/13 04:04:11;;;;;;;8.30;4.67;;;;;;;20.06;44.60;97380.66;5024726;28;20461;-71
2023/10/13 04:06:48;;;;;;;8.73;4.90;;;;;;;20.04;44.63;97387.22;5032843;28;20445;-70
2023/10/13 04:17:22;;;;;;;9.00;5.40;;;;;;;19.80;45.62;97382.34;5027925;28;20462;-70
2023/10/13 04:41:22;;;;;;;8.33;5.43;;;;;;;19.50;46.66;97368.66;5035494;28;20442;-71
2023/10/13 04:43:55;;;;;;;9.23;5.63;;;;;;;19.51;46.70;97367.66;5026129;28;20462;-69
2023/10/13 04:46:54;;;;;;;9.70;5.40;;;;;;;19.52;46.67;97363.16;5027178;28;20434;-70
2023/10/13 04:49:10;;;;;;;10.90;5.47;;;;;;;19.47;46.99;97356.63;5029230;28;20421;-70
2023/10/13 04:52:01;;;;;;;9.30;5.60;;;;;;;19.43;46.82;97352.72;5032553;28;20513;-69
2023/10/13 04:54:26;;;;;;;14.10;6.33;;;;;;;19.46;46.78;97356.84;5027890;28;20212;-70
2023/10/13 04:59:37;;;;;;;10.63;5.20;;;;;;;19.40;46.63;97354.97;5035114;28;20434;-70
2023/10/13 05:49:09;;;;;;;16.63;5.23;;;;;;;19.41;45.08;97336.16;5030884;28;20438;-70
2023/10/13 06:29:38;;;;;;;10.17;5.93;;;;;;;20.19;45.34;97353.22;5043896;28;20445;-70
2023/10/13 06:32:10;;;;;;;11.93;5.83;;;;;;;20.27;45.57;97354.84;5038302;28;20437;-70
2023/10/13 06:34:45;;;;;;;12.30;5.50;;;;;;;20.34;45.66;97350.28;5041333;28;20215;-71
2023/10/13 06:37:23;;;;;;;17.27;6.23;;;;;;;20.39;45.29;97360.28;5028103;28;20747;-70
2023/10/13 06:39:56;;;;;;;13.30;5.53;;;;;;;20.41;43.99;97345.75;5029053;28;20438;-71
2023/10/13 06:42:27;;;;;;;18.57;5.63;;;;;;;20.48;43.15;97347.56;5030346;28;20439;-70
2023/10/13 06:44:54;;;;;;;8.43;4.60;;;;;;;20.53;42.64;97345.91;5036180;28;20487;-69
2023/10/13 06:47:20;;;;;;;7.30;4.40;;;;;;;20.62;42.42;97341.16;5033196;28;20517;-69
2023/10/13 06:49:48;;;;;;;6.13;4.10;;;;;;;20.65;41.52;97346.06;5019868;28;20448;-69
2023/10/13 06:52:16;;;;;;;7.10;4.40;;;;;;;20.75;41.25;97334.16;5033587;28;20440;-72
2023/10/13 06:54:42;;;;;;;10.70;4.23;;;;;;;20.81;40.85;97333.28;5033365;28;21040;-71
2023/10/13 06:57:14;;;;;;;9.20;4.10;;;;;;;20.89;40.71;97342.84;5036806;28;20430;-70
2023/10/13 06:59:40;;;;;;;9.53;3.87;;;;;;;20.98;40.16;97338.91;5033339;28;20522;-71
2023/10/13 07:02:08;;;;;;;9.30;4.50;;;;;;;21.08;40.16;97338.41;5034081;28;20449;-71
2023/10/13 07:04:34;;;;;;;8.37;4.77;;;;;;;21.16;39.62;97335.50;5036384;28;20465;-71
2023/10/13 07:07:00;;;;;;;6.00;3.90;;;;;;;21.32;39.48;97336.81;5035729;28;20499;-71
2023/10/13 07:12:16;;;;;;;20.80;4.33;;;;;;;21.53;38.65;97340.94;5029138;28;20470;-71
2023/10/13 07:14:51;;;;;;;12.43;4.90;;;;;;;21.63;38.57;97338.59;5032056;28;20937;-71
2023/10/13 07:17:23;;;;;;;9.37;4.23;;;;;;;21.69;38.28;97334.22;5032336;28;20456;-71
2023/10/13 07:20:06;;;;;;;14.97;4.03;;;;;;;21.84;38.60;97341.88;5027814;28;20799;-70
2023/10/13 07:22:39;;;;;;;6.80;3.70;;;;;;;21.92;38.03;97341.59;5025519;28;20458;-71
2023/10/13 07:25:06;;;;;;;8.10;4.70;;;;;;;21.99;37.97;97346.03;5030049;28;20478;-73
2023/10/13 07:27:35;;;;;;;8.10;4.07;;;;;;;22.03;37.83;97349.88;5035312;28;20504;-72
2023/10/13 07:32:44;;;;;;;13.07;4.40;;;;;;;22.22;37.62;97343.50;5031178;28;20553;-71
2023/10/13 07:35:20;;;;;;;9.43;4.53;;;;;;;22.31;37.23;97340.50;5024143;28;21150;-71
2023/10/13 07:37:52;;;;;;;11.33;4.73;;;;;;;22.39;37.47;97342.88;5030724;28;20430;-72
2023/10/13 07:43:00;;;;;;;20.33;4.70;;;;;;;22.48;36.87;97333.53;5033358;28;20434;-72
2023/10/13 07:45:38;;;;;;;14.60;4.33;;;;;;;22.67;36.58;97336.19;5018885;28;20870;-72
2023/10/13 07:48:20;;;;;;;9.80;4.37;;;;;;;22.85;36.36;97335.31;5030566;28;20865;-72
2023/10/13 07:51:03;;;;;;;15.13;4.47;;;;;;;23.10;35.79;97335.13;5029062;28;20465;-72
2023/10/13 07:53:34;;;;;;;7.23;3.60;;;;;;;23.35;35.73;97336.81;5032786;28;20729;-72
2023/10/13 07:56:05;;;;;;;10.40;3.97;;;;;;;23.65;35.09;97335.88;5035239;28;20540;-72
2023/10/13 07:58:33;;;;;;;17.43;4.00;;;;;;;23.91;34.62;97347.16;5029807;28;20498;-72
2023/10/13 08:03:35;;;;;;;12.23;4.30;;;;;;;24.36;33.42;97338.44;5030999;28;20547;-72
2023/10/13 08:06:18;;;;;;;9.70;4.37;;;;;;;24.64;32.58;97328.78;5027055;28;20199;-72
2023/10/13 08:08:43;;;;;;;11.20;3.60;;;;;;;24.88;32.38;97330.56;5023498;28;20422;-71
2023/10/13 08:13:59;;;;;;;12.63;3.43;;;;;;;25.38;31.40;97332.47;5023546;28;20742;-72
2023/10/13 08:19:18;;;;;;;6.80;3.63;;;;;;;25.77;30.46;97323.63;5027109;28;20868;-72
2023/10/13 08:21:58;;;;;;;7.70;3.50;;;;;;;25.83;30.16;97333.41;5026850;28;20427;-73
2023/10/13 08:24:29;;;;;;;10.63;3.60;;;;;;;25.98;30.20;97327.41;5028072;28;20473;-72
2023/10/13 08:27:32;;;;;;;12.23;3.60;;;;;;;26.01;30.09;97328.78;5041566;28;20445;-71
2023/10/13 08:40:19;;;;;;;19.23;4.07;;;;;;;27.31;28.34;97310.22;5030856;28;20422;-72
2023/10/13 08:48:07;;;;;;;14.00;3.80;;;;;;;27.51;27.51;97296.13;5039563;28;20465;-73
2023/10/13 08:53:45;;;;;;;12.83;3.80;;;;;;;27.97;26.99;97294.72;5029922;28;20434;-73
2023/10/13 09:01:59;;;;;;;7.13;3.50;;;;;;;28.36;26.01;97305.91;5011666;28;20448;-71
2023/10/13 09:04:34;;;;;;;15.40;3.80;;;;;;;28.64;25.85;97287.66;5038912;28;20469;-73
2023/10/13 09:13:00;;;;;;;7.77;3.30;;;;;;;29.19;24.59;97283.63;5034053;28;20469;-73
2023/10/13 09:17:51;;;;;;;6.70;3.50;;;;;;;29.73;24.17;97283.00;5035372;28;20528;-74
2023/10/13 09:20:32;;;;;;;8.50;3.00;;;;;;;29.86;24.21;97287.03;5036508;28;20183;-73
2023/10/13 09:25:36;;;;;;;8.87;3.10;;;;;;;29.93;23.79;97294.00;5023085;28;20446;-72
2023/10/13 09:28:14;;;;;;;10.83;3.37;;;;;;;30.19;23.50;97284.75;5037677;28;20434;-72
2023/10/13 09:30:52;;;;;;;8.27;3.67;;;;;;;30.52;23.47;97283.47;5023622;28;20434;-72
2023/10/13 09:33:45;;;;;;;6.50;2.93;;;;;;;30.83;23.05;97275.97;5030752;28;20461;-71
2023/10/13 09:36:12;;;;;;;11.30;3.00;;;;;;;31.26;22.46;97278.06;5033055;28;20469;-72
2023/10/13 09:39:01;;;;;;;17.37;3.33;;;;;;;31.55;22.20;97267.22;5028843;28;20530;-72
2023/10/13 09:41:27;;;;;;;14.63;3.53;;;;;;;31.63;22.58;97278.50;5032168;28;20429;-72
2023/10/13 09:43:57;;;;;;;9.30;2.87;;;;;;;31.33;21.84;97278.53;5039140;28;20462;-74
2023/10/13 09:46:26;;;;;;;7.67;3.17;;;;;;;31.32;21.49;97270.69;5030352;28;20480;-74
2023/10/13 09:49:14;;;;;;;11.27;3.40;;;;;;;31.32;21.50;97265.28;5029505;28;20441;-72
2023/10/13 09:51:44;;;;;;;15.10;3.27;;;;;;;31.58;21.55;97263.13;5037599;28;20513;-72
2023/10/13 09:54:31;;;;;;;11.20;3.00;;;;;;;31.93;21.43;97252.97;5037503;28;20446;-73
2023/10/13 09:57:05;;;;;;;9.07;2.90;;;;;;;31.84;20.78;97260.16;5031107;28;20512;-72
2023/10/13 09:59:40;;;;;;;11.27;2.90;;;;;;;31.64;21.23;97242.22;5040232;28;21083;-72
2023/10/13 10:02:18;;;;;;;27.03;3.60;;;;;;;32.25;21.24;97248.81;5034790;28;20529;-73
2023/10/13 10:04:55;;;;;;;10.63;3.00;;;;;;;32.70;20.59;97247.56;5024116;28;20470;-73
2023/10/13 10:07:28;;;;;;;6.30;2.87;;;;;;;32.78;20.66;97241.47;5028250;28;20496;-72
2023/10/13 10:09:58;;;;;;;8.10;3.27;;;;;;;32.66;19.76;97251.97;5031762;28;20430;-73
2023/10/13 10:12:47;;;;;;;18.23;3.10;;;;;;;32.72;19.40;97251.59;5031277;28;20521;-73
2023/10/13 10:15:35;;;;;;;8.20;2.90;;;;;;;32.83;19.52;97249.56;5042229;28;20449;-72
2023/10/13 10:18:03;;;;;;;14.33;3.20;;;;;;;33.11;19.51;97241.50;5036635;28;20536;-72
2023/10/13 10:20:42;;;;;;;9.03;3.00;;;;;;;33.36;19.84;97247.59;5030965;28;20522;-72
2023/10/13 10:23:12;;;;;;;9.27;3.50;;;;;;;33.29;18.96;97236.28;5029471;28;20496;-73
2023/10/13 10:25:38;;;;;;;9.07;3.17;;;;;;;33.31;18.76;97228.63;5018095;28;21249;-72
2023/10/13 10:28:07;;;;;;;10.07;2.93;;;;;;;33.56;19.05;97234.72;5028745;28;20532;-72
2023/10/13 10:30:35;;;;;;;12.23;3.10;;;;;;;33.76;18.71;97228.06;5029962;28;20269;-72
2023/10/13 10:33:06;;;;;;;9.20;2.97;;;;;;;33.96;18.84;97222.22;5041674;28;20437;-73
2023/10/13 10:35:34;;;;;;;8.23;3.13;;;;;;;34.06;18.25;97229.34;5036742;28;20491;-72
2023/10/13 10:38:16;;;;;;;13.30;3.00;;;;;;;33.73;18.71;97221.34;5028701;28;20492;-73
2023/10/13 10:40:57;;;;;;;9.93;3.00;;;;;;;33.44;18.99;97222.44;5026624;28;21059;-73
2023/10/13 10:43:43;;;;;;;14.33;3.27;;;;;;;33.34;19.25;97211.75;5036934;28;21001;-72
2023/10/13 10:46:27;;;;;;;8.17;2.83;;;;;;;33.44;19.82;97199.94;5030721;28;20430;-71
2023/10/13 10:49:01;;;;;;;7.53;2.93;;;;;;;33.27;19.32;97206.72;5022166;28;20430;-73
2023/10/13 10:51:31;;;;;;;11.47;3.17;;;;;;;33.69;19.12;97209.44;5026074;28;20438;-73
2023/10/13 10:53:57;;;;;;;8.03;3.20;;;;;;;33.92;18.96;97193.25;5022050;28;20422;-72
2023/10/13 10:56:25;;;;;;;10.17;2.77;;;;;;;34.01;19.28;97194.16;5036508;28;20429;-73
2023/10/13 10:59:02;;;;;;;14.10;3.30;;;;;;;34.05;18.83;97186.97;5036640;28;20492;-72
2023/10/13 11:01:33;;;;;;;9.90;3.20;;;;;;;34.01;18.94;97180.56;5030239;28;20434;-72
2023/10/13 11:04:18;;;;;;;6.90;3.10;;;;;;;34.06;19.20;97185.84;5028830;28;20459;-73
2023/10/13 11:07:00;;;;;;;8.10;2.80;;;;;;;34.18;18.48;97181.78;5027208;28;20426;-72
2023/10/13 11:11:52;;;;;;;8.80;2.93;;;;;;;34.07;18.87;97167.66;5033013;28;20867;-72
2023/10/13 11:14:26;;;;;;;12.60;2.97;;;;;;;34.39;18.18;97158.47;5023350;28;20212;-72
2023/10/13 11:17:13;;;;;;;9.13;2.60;;;;;;;34.25;18.13;97155.00;5028576;28;20439;-72
2023/10/13 11:19:42;;;;;;;11.23;2.97;;;;;;;34.32;18.04;97147.19;5029848;28;20926;-72
2023/10/13 11:22:29;;;;;;;10.53;3.23;;;;;;;34.27;17.76;97150.84;5038534;28;20437;-72
2023/10/13 11:25:10;;;;;;;9.70;2.70;;;;;;;34.03;18.12;97156.56;5034938;28;20504;-72
2023/10/13 11:27:55;;;;;;;8.80;2.90;;;;;;;33.89;18.29;97156.63;5030581;28;20441;-72
2023/10/13 11:30:25;;;;;;;12.70;3.67;;;;;;;33.90;18.85;97154.72;5025114;28;21009;-73
2023/10/13 11:33:00;;;;;;;4.80;2.47;;;;;;;33.92;18.88;97160.63;5027619;28;20453;-72
2023/10/13 11:35:29;;;;;;;13.00;3.23;;;;;;;34.19;18.91;97158.94;5036537;28;20456;-71
2023/10/13 11:38:03;;;;;;;11.23;3.30;;;;;;;34.34;18.04;97150.41;5036111;28;20453;-72
2023/10/13 11:43:15;;;;;;;5.50;3.10;;;;;;;34.48;18.68;97135.97;5031005;28;20515;-72
2023/10/13 11:46:12;;;;;;;11.80;3.03;;;;;;;34.65;18.19;97133.38;5026604;28;20464;-72
2023/10/13 11:48:39;;;;;;;17.10;3.10;;;;;;;34.41;18.20;97139.91;5019131;28;20437;-72
2023/10/13 11:51:09;;;;;;;11.70;2.63;;;;;;;34.42;17.91;97136.09;5031292;28;20517;-72
2023/10/13 11:53:35;;;;;;;7.13;2.83;;;;;;;34.71;18.39;97139.47;5037818;28;20957;-72
2023/10/13 11:56:01;;;;;;;9.10;2.70;;;;;;;34.67;17.90;97127.59;5038713;28;20445;-73
2023/10/13 11:58:28;;;;;;;9.40;3.70;;;;;;;34.63;18.00;97118.44;5030681;28;20198;-73
2023/10/13 12:01:07;;;;;;;13.63;3.40;;;;;;;34.78;18.11;97125.44;5039081;28;20436;-71
2023/10/13 12:06:32;;;;;;;6.43;3.00;;;;;;;35.14;17.74;97110.88;5035627;28;20510;-73
2023/10/13 12:09:28;;;;;;;7.23;3.10;;;;;;;35.00;17.57;97106.34;5026909;28;20430;-73
2023/10/13 12:11:54;;;;;;;5.50;2.40;;;;;;;34.80;17.92;97099.50;5031928;28;20564;-74
2023/10/13 12:14:52;;;;;;;7.27;3.23;;;;;;;34.44;17.59;97114.03;5030122;28;20541;-72
2023/10/13 12:17:57;;;;;;;7.40;3.00;;;;;;;34.28;17.59;97098.06;5028576;28;20244;-73
2023/10/13 12:20:18;;;;;;;9.03;3.20;;;;;;;34.15;17.72;97098.94;5029587;28;20442;-73
2023/10/13 12:22:54;;;;;;;7.87;3.00;;;;;;;34.31;18.05;97091.22;5038757;28;20785;-72
2023/10/13 12:27:59;;;;;;;9.50;2.73;;;;;;;34.73;18.00;97086.34;5031077;28;21142;-72
2023/10/13 12:33:09;;;;;;;14.80;3.17;;;;;;;34.77;17.81;97070.19;5030231;28;20496;-73
2023/10/13 12:36:03;;;;;;;6.53;2.70;;;;;;;34.53;18.08;97070.56;5026167;28;20454;-71
2023/10/13 12:52:55;;;;;;;12.17;2.60;;;;;;;34.89;17.45;97054.06;5034869;28;20430;-72
2023/10/13 12:55:06;;;;;;;8.80;3.00;;;;;;;34.80;17.73;97038.81;5025013;28;20461;-74
2023/10/13 12:57:32;;;;;;;6.80;2.93;;;;;;;34.97;17.86;97033.47;5028702;28;20512;-73
2023/10/13 12:59:57;;;;;;;9.50;2.50;;;;;;;35.05;17.58;97032.69;5039081;28;21198;-73
2023/10/13 13:02:27;;;;;;;5.40;2.73;;;;;;;34.91;17.77;97031.97;5029962;28;20194;-73
2023/10/13 13:05:11;;;;;;;11.27;3.20;;;;;;;34.67;17.57;97027.72;5034590;28;20708;-73
2023/10/13 13:07:47;;;;;;;11.33;3.60;;;;;;;34.65;17.91;97027.28;5025435;28;20449;-72
2023/10/13 13:10:13;;;;;;;10.03;3.00;;;;;;;34.78;17.62;97011.94;5041418;28;20433;-72
2023/10/13 13:12:40;;;;;;;9.30;3.20;;;;;;;34.93;17.91;97016.16;5033397;28;20433;-72
2023/10/13 13:15:08;;;;;;;12.07;3.10;;;;;;;35.02;17.04;97010.75;5039193;28;20446;-74
2023/10/13 13:17:35;;;;;;;8.13;2.80;;;;;;;35.09;17.19;97005.66;5039299;28;20483;-72
2023/10/13 13:20:10;;;;;;;6.37;2.90;;;;;;;35.01;17.04;97009.94;5033437;28;20430;-72
2023/10/13 13:22:36;;;;;;;10.60;3.03;;;;;;;34.97;16.61;97013.63;5036547;28;20433;-72
2023/10/13 13:25:01;;;;;;;14.33;2.90;;;;;;;34.97;16.50;97003.53;5044576;28;20504;-72
2023/10/13 13:27:27;;;;;;;11.07;3.23;;;;;;;34.73;16.38;97003.91;5046153;28;20816;-72
2023/10/13 13:29:52;;;;;;;8.20;3.13;;;;;;;34.85;16.52;97006.03;5041082;28;20190;-72
2023/10/13 13:32:23;;;;;;;6.90;2.73;;;;;;;34.57;16.41;97003.53;5035690;28;20195;-73
2023/10/13 13:35:05;;;;;;;8.50;2.90;;;;;;;34.54;16.22;96988.66;5030149;28;20806;-73
2023/10/13 13:37:34;;;;;;;3.47;3.00;;;;;;;34.60;16.57;96994.75;5029763;28;20460;-73
2023/10/13 13:40:14;;;;;;;9.27;3.10;;;;;;;34.48;16.48;96991.84;5029137;28;20521;-73
2023/10/13 13:42:45;;;;;;;5.43;3.20;;;;;;;34.54;16.35;96982.41;5036222;28;20433;-73
2023/10/13 13:45:27;;;;;;;7.70;2.90;;;;;;;34.60;16.73;96967.56;5030636;28;20470;-75
2023/10/13 13:47:53;;;;;;;4.37;3.13;;;;;;;34.52;16.89;96969.13;5035746;28;20427;-74
2023/10/13 13:50:28;;;;;;;12.70;2.80;;;;;;;34.57;16.74;96973.63;5031974;28;20434;-74
2023/10/13 13:52:57;;;;;;;9.10;2.83;;;;;;;34.42;16.30;96956.59;5031684;28;20671;-72
2023/10/13 13:55:23;;;;;;;7.03;3.00;;;;;;;34.58;16.81;96969.78;5030957;28;20446;-73
2023/10/13 13:57:50;;;;;;;10.63;2.70;;;;;;;34.59;16.62;96960.50;5031102;28;20430;-74
2023/10/13 14:00:37;;;;;;;9.47;2.50;;;;;;;34.61;16.94;96950.13;5033455;28;20422;-72
2023/10/13 14:03:12;;;;;;;16.20;2.87;;;;;;;34.35;16.72;96950.81;5032788;28;20429;-73
2023/10/13 14:05:41;;;;;;;8.83;2.80;;;;;;;34.43;16.23;96950.06;5027857;28;20458;-72
2023/10/13 14:08:11;;;;;;;6.07;2.70;;;;;;;34.17;16.74;96943.69;5030971;28;20521;-72
2023/10/13 14:11:13;;;;;;;8.30;3.00;;;;;;;34.13;16.84;96955.19;5041902;28;20904;-73
2023/10/13 14:13:47;;;;;;;8.87;3.83;;;;;;;33.91;16.65;96949.78;5043415;28;20436;-72
2023/10/13 14:16:16;;;;;;;10.80;3.50;;;;;;;34.05;16.60;96947.78;5032727;28;20551;-72
2023/10/13 14:18:44;;;;;;;5.60;3.10;;;;;;;33.94;16.81;96938.31;5028863;28;20441;-73
2023/10/13 14:21:10;;;;;;;10.03;3.20;;;;;;;33.92;16.63;96926.94;5027535;28;21152;-71
2023/10/13 14:23:36;;;;;;;7.20;2.80;;;;;;;33.89;16.45;96930.28;5028907;28;20462;-73
2023/10/13 14:26:01;;;;;;;6.37;3.00;;;;;;;33.81;16.66;96921.75;5027267;28;20227;-72
2023/10/13 14:28:34;;;;;;;8.40;2.87;;;;;;;33.73;16.91;96925.22;5037155;28;20192;-72
2023/10/13 14:31:09;;;;;;;10.80;3.00;;;;;;;33.67;17.11;96921.84;5028256;28;20198;-72
2023/10/13 14:33:36;;;;;;;5.30;2.67;;;;;;;33.69;16.35;96913.38;5025160;28;20942;-72
2023/10/13 14:36:04;;;;;;;4.70;2.53;;;;;;;33.76;16.58;96913.75;5032680;28;20622;-72
2023/10/13 14:38:30;;;;;;;5.57;2.50;;;;;;;33.77;16.28;96912.63;5029239;28;20515;-72
2023/10/13 14:40:58;;;;;;;6.27;2.43;;;;;;;33.61;16.81;96917.63;5030777;28;20426;-73
2023/10/13 14:43:27;;;;;;;10.33;2.93;;;;;;;33.31;16.74;96924.56;5038800;28;20465;-72
2023/10/13 14:45:55;;;;;;;11.47;2.47;;;;;;;33.30;16.70;96912.09;5024373;28;20454;-73
2023/10/13 14:48:24;;;;;;;7.90;2.67;;;;;;;33.27;16.72;96913.53;5043841;28;21018;-74
2023/10/13 14:50:49;;;;;;;7.13;2.10;;;;;;;33.06;16.63;96913.19;5026452;28;20440;-73
2023/10/13 14:53:19;;;;;;;5.80;2.50;;;;;;;33.08;16.69;96900.91;5036544;28;20453;-73
2023/10/13 14:55:45;;;;;;;6.37;2.60;;;;;;;32.92;16.29;96903.19;5030180;28;20219;-73
2023/10/13 14:58:15;;;;;;;4.27;2.20;;;;;;;32.63;16.36;96901.63;5028335;28;20426;-74
2023/10/13 15:00:45;;;;;;;8.50;2.33;;;;;;;32.46;16.45;96899.53;5036005;28;20291;-73
2023/10/13 15:03:11;;;;;;;6.73;2.30;;;;;;;32.41;16.30;96899.63;5031619;28;20439;-73
2023/10/13 15:05:43;;;;;;;4.43;2.37;;;;;;;32.22;16.31;96897.00;5028413;28;20478;-73
2023/10/13 15:08:09;;;;;;;4.70;2.43;;;;;;;32.08;16.70;96896.19;5028873;28;20470;-73
2023/10/13 15:10:36;;;;;;;3.73;2.10;;;;;;;32.01;16.65;96891.97;5027542;28;20463;-73
2023/10/13 15:13:02;;;;;;;7.53;2.83;;;;;;;32.05;16.76;96891.38;5032613;28;20966;-72
2023/10/13 15:15:30;;;;;;;3.77;2.30;;;;;;;32.02;16.91;96892.78;5031234;28;20453;-73